sensor_id;sensor_type;location;lat;lon;timestamp;pressure;altitude;pressure_sealevel;temperature;humidity
39739;BME280;25422;48.286;8.484;2023-04-05T00:01:08;94429.31;;;-4.52;100.00
39739;BME280;25422;48.286;8.484;2023-04-05T00:03:36;94422.44;;;-4.50;100.00
39739;BME280;25422;48.286;8.484;2023-04-05T00:06:01;94422.19;;;-4.45;100.00
39739;BME280;25422;48.286;8.484;2023-04-05T00:08:29;94411.91;;;-4.44;100.00
39739;BME280;25422;48.286;8.484;2023-04-05T00:10:55;94413.09;;;-4.51;100.00
39739;BME280;25422;48.286;8.484;2023-04-05T00:13:21;94409.03;;;-4.55;100.00
39739;BME280;25422;48.286;8.484;2023-04-05T00:15:47;94414.31;;;-4.41;100.00
39739;BME280;25422;48.286;8.484;2023-04-05T00:18:13;94411.19;;;-4.28;100.00
39739;BME280;25422;48.286;8.484;2023-04-05T00:20:47;94403.66;;;-4.31;100.00
39739;BME280;25422;48.286;8.484;2023-04-05T00:23:13;94406.06;;;-4.28;100.00
39739;BME280;25422;48.286;8.484;2023-04-05T00:25:41;94401.56;;;-4.41;100.00
39739;BME280;25422;48.286;8.484;2023-04-05T00:28:06;94398.47;;;-4.30;100.00
39739;BME280;25422;48.286;8.484;2023-04-05T00:30:32;94402.91;;;-4.33;100.00
39739;BME280;25422;48.286;8.484;2023-04-05T00:32:57;94400.06;;;-4.45;100.00
39739;BME280;25422;48.286;8.484;2023-04-05T00:35:26;94407.53;;;-4.59;100.00
39739;BME280;25422;48.286;8.484;2023-04-05T00:37:51;94403.75;;;-4.69;100.00
39739;BME280;25422;48.286;8.484;2023-04-05T00:40:17;94409.78;;;-4.70;100.00
39739;BME280;25422;48.286;8.484;2023-04-05T00:42:42;94404.06;;;-4.76;100.00
39739;BME280;25422;48.286;8.484;2023-04-05T00:45:08;94401.56;;;-4.77;100.00
39739;BME280;25422;48.286;8.484;2023-04-05T00:47:33;94394.53;;;-4.72;100.00
39739;BME280;25422;48.286;8.484;2023-04-05T00:49:59;94395.28;;;-4.70;100.00
39739;BME280;25422;48.286;8.484;2023-04-05T00:52:26;94396.41;;;-4.76;100.00
39739;BME280;25422;48.286;8.484;2023-04-05T00:54:52;94389.63;;;-4.77;100.00
39739;BME280;25422;48.286;8.484;2023-04-05T00:57:18;94392.44;;;-4.64;100.00
39739;BME280;25422;48.286;8.484;2023-04-05T00:59:44;94376.19;;;-4.63;100.00
39739;BME280;25422;48.286;8.484;2023-04-05T01:02:17;94382.50;;;-4.70;100.00
39739;BME280;25422;48.286;8.484;2023-04-05T01:04:48;94381.63;;;-4.69;100.00
39739;BME280;25422;48.286;8.484;2023-04-05T01:07:42;94378.72;;;-4.61;100.00
39739;BME280;25422;48.286;8.484;2023-04-05T01:10:12;94369.38;;;-4.62;100.00
39739;BME280;25422;48.286;8.484;2023-04-05T01:12:41;94373.72;;;-4.64;100.00
39739;BME280;25422;48.286;8.484;2023-04-05T01:15:07;94371.03;;;-4.79;100.00
39739;BME280;25422;48.286;8.484;2023-04-05T01:17:33;94369.94;;;-4.92;100.00
39739;BME280;25422;48.286;8.484;2023-04-05T01:20:09;94364.06;;;-4.94;100.00
39739;BME280;25422;48.286;8.484;2023-04-05T01:30:31;94351.94;;;-4.89;100.00
39739;BME280;25422;48.286;8.484;2023-04-05T01:35:39;94341.97;;;-5.13;100.00
39739;BME280;25422;48.286;8.484;2023-04-05T01:38:10;94344.22;;;-5.06;100.00
39739;BME280;25422;48.286;8.484;2023-04-05T01:40:39;94336.00;;;-4.94;100.00
39739;BME280;25422;48.286;8.484;2023-04-05T01:43:13;94335.72;;;-4.88;100.00
39739;BME280;25422;48.286;8.484;2023-04-05T01:45:40;94332.41;;;-4.90;100.00
39739;BME280;25422;48.286;8.484;2023-04-05T01:48:05;94334.94;;;-4.90;100.00
39739;BME280;25422;48.286;8.484;2023-04-05T01:50:31;94335.84;;;-4.91;100.00
39739;BME280;25422;48.286;8.484;2023-04-05T01:52:57;94327.19;;;-4.87;100.00
39739;BME280;25422;48.286;8.484;2023-04-05T01:55:22;94325.97;;;-4.80;100.00
39739;BME280;25422;48.286;8.484;2023-04-05T01:57:47;94328.88;;;-4.87;100.00
39739;BME280;25422;48.286;8.484;2023-04-05T02:00:13;94324.00;;;-4.92;100.00
39739;BME280;25422;48.286;8.484;2023-04-05T02:02:38;94324.00;;;-4.92;100.00
39739;BME280;25422;48.286;8.484;2023-04-05T02:05:04;94321.66;;;-4.97;100.00
39739;BME280;25422;48.286;8.484;2023-04-05T02:07:30;94318.72;;;-5.06;100.00
39739;BME280;25422;48.286;8.484;2023-04-05T02:09:55;94323.09;;;-5.09;100.00
39739;BME280;25422;48.286;8.484;2023-04-05T02:12:21;94313.91;;;-5.13;100.00
39739;BME280;25422;48.286;8.484;2023-04-05T02:14:47;94310.31;;;-5.09;100.00
39739;BME280;25422;48.286;8.484;2023-04-05T02:17:12;94313.69;;;-5.08;100.00
39739;BME280;25422;48.286;8.484;2023-04-05T02:19:37;94309.56;;;-5.11;100.00
39739;BME280;25422;48.286;8.484;2023-04-05T02:22:06;94304.47;;;-5.11;100.00
39739;BME280;25422;48.286;8.484;2023-04-05T02:24:32;94298.38;;;-5.08;100.00
39739;BME280;25422;48.286;8.484;2023-04-05T02:26:58;94300.28;;;-4.94;100.00
39739;BME280;25422;48.286;8.484;2023-04-05T02:29:23;94296.75;;;-4.92;100.00
39739;BME280;25422;48.286;8.484;2023-04-05T02:31:49;94299.84;;;-4.85;100.00
39739;BME280;25422;48.286;8.484;2023-04-05T02:34:14;94299.16;;;-4.88;100.00
39739;BME280;25422;48.286;8.484;2023-04-05T02:36:40;94300.44;;;-4.97;100.00
39739;BME280;25422;48.286;8.484;2023-04-05T02:39:06;94305.16;;;-5.07;100.00
39739;BME280;25422;48.286;8.484;2023-04-05T02:41:31;94302.25;;;-5.18;100.00
39739;BME280;25422;48.286;8.484;2023-04-05T02:43:57;94299.94;;;-5.23;100.00
39739;BME280;25422;48.286;8.484;2023-04-05T02:46:27;94306.97;;;-5.28;100.00
39739;BME280;25422;48.286;8.484;2023-04-05T02:48:52;94302.16;;;-5.34;100.00
39739;BME280;25422;48.286;8.484;2023-04-05T02:51:18;94305.00;;;-5.40;100.00
39739;BME280;25422;48.286;8.484;2023-04-05T02:53:43;94299.13;;;-5.43;100.00
39739;BME280;25422;48.286;8.484;2023-04-05T02:56:11;94297.75;;;-5.50;100.00
39739;BME280;25422;48.286;8.484;2023-04-05T02:58:40;94304.03;;;-5.57;100.00
39739;BME280;25422;48.286;8.484;2023-04-05T03:01:07;94295.53;;;-5.57;100.00
39739;BME280;25422;48.286;8.484;2023-04-05T03:03:34;94298.16;;;-5.59;100.00
39739;BME280;25422;48.286;8.484;2023-04-05T03:06:04;94297.81;;;-5.51;100.00
39739;BME280;25422;48.286;8.484;2023-04-05T03:08:38;94295.75;;;-5.62;100.00
39739;BME280;25422;48.286;8.484;2023-04-05T03:11:09;94296.81;;;-5.66;100.00
39739;BME280;25422;48.286;8.484;2023-04-05T03:13:36;94298.47;;;-5.65;100.00
39739;BME280;25422;48.286;8.484;2023-04-05T03:16:05;94305.25;;;-5.66;100.00
39739;BME280;25422;48.286;8.484;2023-04-05T03:18:30;94293.56;;;-5.70;100.00
39739;BME280;25422;48.286;8.484;2023-04-05T03:21:03;94293.78;;;-5.74;100.00
39739;BME280;25422;48.286;8.484;2023-04-05T03:23:31;94303.16;;;-5.75;100.00
39739;BME280;25422;48.286;8.484;2023-04-05T03:26:02;94298.09;;;-5.77;100.00
39739;BME280;25422;48.286;8.484;2023-04-05T03:28:32;94305.88;;;-5.80;100.00
39739;BME280;25422;48.286;8.484;2023-04-05T03:31:01;94299.97;;;-5.80;100.00
39739;BME280;25422;48.286;8.484;2023-04-05T03:33:26;94300.16;;;-5.85;100.00
39739;BME280;25422;48.286;8.484;2023-04-05T03:35:52;94299.00;;;-5.78;100.00
39739;BME280;25422;48.286;8.484;2023-04-05T03:38:18;94299.13;;;-5.81;100.00
39739;BME280;25422;48.286;8.484;2023-04-05T03:40:53;94301.00;;;-5.84;100.00
39739;BME280;25422;48.286;8.484;2023-04-05T03:43:18;94293.38;;;-5.84;100.00
39739;BME280;25422;48.286;8.484;2023-04-05T03:45:44;94296.47;;;-5.97;100.00
39739;BME280;25422;48.286;8.484;2023-04-05T03:48:09;94303.50;;;-6.02;100.00
39739;BME280;25422;48.286;8.484;2023-04-05T03:50:35;94289.50;;;-6.12;100.00
39739;BME280;25422;48.286;8.484;2023-04-05T03:53:00;94296.47;;;-6.16;100.00
39739;BME280;25422;48.286;8.484;2023-04-05T03:55:27;94289.50;;;-6.12;100.00
39739;BME280;25422;48.286;8.484;2023-04-05T03:57:53;94289.88;;;-6.01;100.00
39739;BME280;25422;48.286;8.484;2023-04-05T04:00:26;94285.25;;;-5.93;100.00
39739;BME280;25422;48.286;8.484;2023-04-05T04:03:10;94275.03;;;-5.93;100.00
39739;BME280;25422;48.286;8.484;2023-04-05T04:05:40;94279.03;;;-5.87;100.00
39739;BME280;25422;48.286;8.484;2023-04-05T04:08:07;94279.66;;;-5.82;100.00
39739;BME280;25422;48.286;8.484;2023-04-05T04:10:34;94275.59;;;-5.86;100.00
39739;BME280;25422;48.286;8.484;2023-04-05T04:13:00;94279.09;;;-5.88;100.00
39739;BME280;25422;48.286;8.484;2023-04-05T04:15:30;94277.00;;;-5.98;100.00
39739;BME280;25422;48.286;8.484;2023-04-05T04:18:09;94282.28;;;-6.02;100.00
39739;BME280;25422;48.286;8.484;2023-04-05T04:20:47;94283.44;;;-6.10;100.00
39739;BME280;25422;48.286;8.484;2023-04-05T04:23:44;94279.28;;;-5.93;100.00
39739;BME280;25422;48.286;8.484;2023-04-05T04:26:21;94278.25;;;-5.89;100.00
39739;BME280;25422;48.286;8.484;2023-04-05T04:29:13;94268.56;;;-5.81;100.00
39739;BME280;25422;48.286;8.484;2023-04-05T04:32:00;94270.84;;;-5.74;100.00
39739;BME280;25422;48.286;8.484;2023-04-05T04:34:45;94264.00;;;-5.74;100.00
39739;BME280;25422;48.286;8.484;2023-04-05T04:37:29;94266.56;;;-5.74;100.00
39739;BME280;25422;48.286;8.484;2023-04-05T04:40:15;94268.69;;;-5.84;100.00
39739;BME280;25422;48.286;8.484;2023-04-05T04:43:19;94273.69;;;-6.00;100.00
39739;BME280;25422;48.286;8.484;2023-04-05T04:46:12;94278.50;;;-6.13;100.00
39739;BME280;25422;48.286;8.484;2023-04-05T04:48:56;94282.31;;;-6.23;100.00
39739;BME280;25422;48.286;8.484;2023-04-05T04:51:31;94281.50;;;-6.23;100.00
39739;BME280;25422;48.286;8.484;2023-04-05T04:53:57;94279.16;;;-6.28;100.00
39739;BME280;25422;48.286;8.484;2023-04-05T04:56:22;94276.75;;;-6.31;100.00
39739;BME280;25422;48.286;8.484;2023-04-05T04:58:48;94275.63;;;-6.25;100.00
39739;BME280;25422;48.286;8.484;2023-04-05T05:01:14;94284.47;;;-6.14;100.00
39739;BME280;25422;48.286;8.484;2023-04-05T05:03:41;94273.88;;;-6.04;100.00
39739;BME280;25422;48.286;8.484;2023-04-05T05:06:06;94277.44;;;-5.89;100.00
39739;BME280;25422;48.286;8.484;2023-04-05T05:08:33;94274.97;;;-5.91;100.00
39739;BME280;25422;48.286;8.484;2023-04-05T05:10:59;94280.81;;;-5.89;100.00
39739;BME280;25422;48.286;8.484;2023-04-05T05:13:25;94283.66;;;-5.95;100.00
39739;BME280;25422;48.286;8.484;2023-04-05T05:15:50;94287.34;;;-6.01;100.00
39739;BME280;25422;48.286;8.484;2023-04-05T05:18:17;94285.59;;;-6.00;100.00
39739;BME280;25422;48.286;8.484;2023-04-05T05:20:42;94282.88;;;-5.97;100.00
39739;BME280;25422;48.286;8.484;2023-04-05T05:23:08;94286.34;;;-5.79;100.00
39739;BME280;25422;48.286;8.484;2023-04-05T05:25:33;94281.78;;;-5.72;100.00
39739;BME280;25422;48.286;8.484;2023-04-05T05:27:58;94285.78;;;-5.67;100.00
39739;BME280;25422;48.286;8.484;2023-04-05T05:30:25;94289.16;;;-5.66;100.00
39739;BME280;25422;48.286;8.484;2023-04-05T05:32:52;94287.16;;;-5.60;100.00
39739;BME280;25422;48.286;8.484;2023-04-05T05:35:17;94279.94;;;-5.32;100.00
39739;BME280;25422;48.286;8.484;2023-04-05T05:37:43;94285.84;;;-4.95;100.00
39739;BME280;25422;48.286;8.484;2023-04-05T05:40:09;94297.72;;;-4.42;100.00
39739;BME280;25422;48.286;8.484;2023-04-05T05:42:38;94290.81;;;-3.73;100.00
39739;BME280;25422;48.286;8.484;2023-04-05T05:45:04;94295.44;;;-3.31;100.00
39739;BME280;25422;48.286;8.484;2023-04-05T05:47:30;94293.34;;;-2.77;100.00
39739;BME280;25422;48.286;8.484;2023-04-05T05:49:55;94286.56;;;-2.33;100.00
39739;BME280;25422;48.286;8.484;2023-04-05T05:52:22;94296.09;;;-1.48;100.00
39739;BME280;25422;48.286;8.484;2023-04-05T05:54:47;94288.38;;;-0.92;100.00
39739;BME280;25422;48.286;8.484;2023-04-05T05:57:13;94290.50;;;-0.72;100.00
39739;BME280;25422;48.286;8.484;2023-04-05T05:59:38;94282.94;;;-0.35;100.00
39739;BME280;25422;48.286;8.484;2023-04-05T06:02:04;94279.88;;;-0.14;100.00
39739;BME280;25422;48.286;8.484;2023-04-05T06:04:29;94284.41;;;0.21;100.00
39739;BME280;25422;48.286;8.484;2023-04-05T06:06:56;94288.78;;;0.71;100.00
39739;BME280;25422;48.286;8.484;2023-04-05T06:09:21;94284.56;;;0.94;100.00
39739;BME280;25422;48.286;8.484;2023-04-05T06:11:50;94293.63;;;0.99;100.00
39739;BME280;25422;48.286;8.484;2023-04-05T06:14:16;94295.34;;;0.75;100.00
39739;BME280;25422;48.286;8.484;2023-04-05T06:16:41;94288.19;;;0.91;100.00
39739;BME280;25422;48.286;8.484;2023-04-05T06:19:06;94286.06;;;1.09;100.00
39739;BME280;25422;48.286;8.484;2023-04-05T06:21:32;94278.81;;;1.39;100.00
39739;BME280;25422;48.286;8.484;2023-04-05T06:23:57;94285.00;;;1.60;100.00
39739;BME280;25422;48.286;8.484;2023-04-05T06:26:23;94285.16;;;1.46;96.12
39739;BME280;25422;48.286;8.484;2023-04-05T06:28:52;94280.75;;;1.59;98.79
39739;BME280;25422;48.286;8.484;2023-04-05T06:31:19;94290.25;;;2.06;91.85
39739;BME280;25422;48.286;8.484;2023-04-05T06:33:45;94295.66;;;2.70;93.19
39739;BME280;25422;48.286;8.484;2023-04-05T06:36:10;94292.31;;;3.14;84.66
39739;BME280;25422;48.286;8.484;2023-04-05T06:38:36;94287.97;;;4.00;82.49
39739;BME280;25422;48.286;8.484;2023-04-05T06:41:02;94285.94;;;4.97;74.04
39739;BME280;25422;48.286;8.484;2023-04-05T06:43:27;94285.59;;;5.60;62.72
39739;BME280;25422;48.286;8.484;2023-04-05T06:45:56;94281.03;;;6.40;59.09
39739;BME280;25422;48.286;8.484;2023-04-05T06:48:21;94286.19;;;6.78;53.57
39739;BME280;25422;48.286;8.484;2023-04-05T06:50:55;94280.47;;;7.02;53.34
39739;BME280;25422;48.286;8.484;2023-04-05T06:53:21;94277.09;;;8.10;49.05
39739;BME280;25422;48.286;8.484;2023-04-05T06:55:49;94283.53;;;7.62;47.34
39739;BME280;25422;48.286;8.484;2023-04-05T06:58:15;94289.63;;;7.34;51.58
39739;BME280;25422;48.286;8.484;2023-04-05T07:00:40;94275.78;;;8.58;45.41
39739;BME280;25422;48.286;8.484;2023-04-05T07:03:06;94287.94;;;8.76;46.54
39739;BME280;25422;48.286;8.484;2023-04-05T07:05:31;94289.31;;;8.54;43.95
39739;BME280;25422;48.286;8.484;2023-04-05T07:07:57;94289.28;;;8.27;43.86
39739;BME280;25422;48.286;8.484;2023-04-05T07:10:22;94284.94;;;8.36;45.37
39739;BME280;25422;48.286;8.484;2023-04-05T07:12:47;94291.47;;;6.96;47.78
39739;BME280;25422;48.286;8.484;2023-04-05T07:15:13;94299.94;;;6.23;51.40
39739;BME280;25422;48.286;8.484;2023-04-05T07:17:38;94301.56;;;5.46;54.00
39739;BME280;25422;48.286;8.484;2023-04-05T07:20:04;94293.50;;;5.29;54.34
39739;BME280;25422;48.286;8.484;2023-04-05T07:22:32;94297.09;;;4.56;56.38
39739;BME280;25422;48.286;8.484;2023-04-05T07:24:57;94295.09;;;5.11;57.04
39739;BME280;25422;48.286;8.484;2023-04-05T07:27:23;94290.25;;;5.96;52.15
39739;BME280;25422;48.286;8.484;2023-04-05T07:29:49;94290.50;;;7.43;48.74
39739;BME280;25422;48.286;8.484;2023-04-05T07:32:14;94283.59;;;7.70;46.57
39739;BME280;25422;48.286;8.484;2023-04-05T07:34:40;94285.75;;;9.40;42.11
39739;BME280;25422;48.286;8.484;2023-04-05T07:37:05;94284.38;;;9.20;39.93
39739;BME280;25422;48.286;8.484;2023-04-05T07:39:32;94286.91;;;9.54;40.80
39739;BME280;25422;48.286;8.484;2023-04-05T07:41:57;94288.56;;;9.72;39.93
39739;BME280;25422;48.286;8.484;2023-04-05T07:44:22;94286.41;;;8.91;39.91
39739;BME280;25422;48.286;8.484;2023-04-05T07:46:48;94296.13;;;9.16;39.79
39739;BME280;25422;48.286;8.484;2023-04-05T07:49:13;94298.31;;;9.45;38.79
39739;BME280;25422;48.286;8.484;2023-04-05T07:51:38;94299.41;;;8.83;39.80
39739;BME280;25422;48.286;8.484;2023-04-05T07:54:04;94301.81;;;8.06;41.99
39739;BME280;25422;48.286;8.484;2023-04-05T07:56:30;94301.25;;;8.99;39.65
39739;BME280;25422;48.286;8.484;2023-04-05T07:58:57;94297.84;;;9.41;37.35
39739;BME280;25422;48.286;8.484;2023-04-05T08:01:22;94296.53;;;9.45;37.54
39739;BME280;25422;48.286;8.484;2023-04-05T08:03:52;94295.97;;;10.42;35.85
39739;BME280;25422;48.286;8.484;2023-04-05T08:06:17;94306.72;;;10.64;35.35
39739;BME280;25422;48.286;8.484;2023-04-05T08:08:43;94304.91;;;8.27;36.14
39739;BME280;25422;48.286;8.484;2023-04-05T08:11:09;94306.44;;;7.94;36.47
39739;BME280;25422;48.286;8.484;2023-04-05T08:13:34;94303.97;;;8.37;35.23
39739;BME280;25422;48.286;8.484;2023-04-05T08:16:01;94311.91;;;7.83;38.06
39739;BME280;25422;48.286;8.484;2023-04-05T08:18:26;94304.63;;;8.57;35.82
39739;BME280;25422;48.286;8.484;2023-04-05T08:20:53;94298.94;;;8.53;35.35
39739;BME280;25422;48.286;8.484;2023-04-05T08:23:19;94304.81;;;8.90;36.54
39739;BME280;25422;48.286;8.484;2023-04-05T08:25:44;94305.25;;;8.51;36.15
39739;BME280;25422;48.286;8.484;2023-04-05T08:28:10;94299.38;;;8.75;34.25
39739;BME280;25422;48.286;8.484;2023-04-05T08:30:36;94309.19;;;7.74;35.67
39739;BME280;25422;48.286;8.484;2023-04-05T08:33:02;94305.97;;;8.61;32.85
39739;BME280;25422;48.286;8.484;2023-04-05T08:35:28;94310.66;;;8.13;34.22
39739;BME280;25422;48.286;8.484;2023-04-05T08:37:53;94306.88;;;6.22;36.30
39739;BME280;25422;48.286;8.484;2023-04-05T08:40:18;94311.72;;;5.98;36.80
39739;BME280;25422;48.286;8.484;2023-04-05T08:42:51;94307.78;;;7.62;35.19
39739;BME280;25422;48.286;8.484;2023-04-05T08:45:20;94310.13;;;8.27;33.58
39739;BME280;25422;48.286;8.484;2023-04-05T08:47:48;94311.16;;;6.71;35.96
39739;BME280;25422;48.286;8.484;2023-04-05T08:50:15;94306.91;;;8.34;33.67
39739;BME280;25422;48.286;8.484;2023-04-05T08:52:44;94311.41;;;9.02;32.71
39739;BME280;25422;48.286;8.484;2023-04-05T08:55:14;94311.78;;;9.16;33.08
39739;BME280;25422;48.286;8.484;2023-04-05T08:57:42;94307.78;;;7.98;33.46
39739;BME280;25422;48.286;8.484;2023-04-05T09:00:08;94315.38;;;7.91;34.30
39739;BME280;25422;48.286;8.484;2023-04-05T09:02:36;94320.06;;;7.70;34.60
39739;BME280;25422;48.286;8.484;2023-04-05T09:05:02;94309.09;;;7.02;35.42
39739;BME280;25422;48.286;8.484;2023-04-05T09:07:29;94307.00;;;6.78;35.87
39739;BME280;25422;48.286;8.484;2023-04-05T09:09:56;94313.66;;;8.00;34.94
39739;BME280;25422;48.286;8.484;2023-04-05T09:12:24;94308.63;;;7.17;35.32
39739;BME280;25422;48.286;8.484;2023-04-05T09:14:51;94313.50;;;7.84;34.99
39739;BME280;25422;48.286;8.484;2023-04-05T09:17:17;94314.25;;;7.58;36.01
39739;BME280;25422;48.286;8.484;2023-04-05T09:19:44;94307.31;;;8.21;35.23
39739;BME280;25422;48.286;8.484;2023-04-05T09:22:09;94309.31;;;8.80;34.91
39739;BME280;25422;48.286;8.484;2023-04-05T09:24:40;94309.91;;;7.31;36.09
39739;BME280;25422;48.286;8.484;2023-04-05T09:27:11;94320.94;;;7.15;36.85
39739;BME280;25422;48.286;8.484;2023-04-05T09:29:38;94314.44;;;6.73;38.25
39739;BME280;25422;48.286;8.484;2023-04-05T09:32:07;94308.19;;;8.30;38.08
39739;BME280;25422;48.286;8.484;2023-04-05T09:34:34;94317.00;;;7.56;36.43
39739;BME280;25422;48.286;8.484;2023-04-05T09:37:14;94311.88;;;8.01;37.31
39739;BME280;25422;48.286;8.484;2023-04-05T09:39:40;94312.09;;;7.07;38.13
39739;BME280;25422;48.286;8.484;2023-04-05T09:42:08;94314.03;;;6.96;38.27
39739;BME280;25422;48.286;8.484;2023-04-05T09:47:17;94313.50;;;7.66;36.86
39739;BME280;25422;48.286;8.484;2023-04-05T09:49:43;94314.59;;;6.99;38.50
39739;BME280;25422;48.286;8.484;2023-04-05T09:54:44;94314.25;;;6.84;39.52
39739;BME280;25422;48.286;8.484;2023-04-05T09:57:10;94307.66;;;6.43;40.63
39739;BME280;25422;48.286;8.484;2023-04-05T09:59:37;94309.09;;;7.30;39.17
39739;BME280;25422;48.286;8.484;2023-04-05T10:02:03;94306.78;;;7.27;36.84
39739;BME280;25422;48.286;8.484;2023-04-05T10:04:42;94312.75;;;7.37;38.91
39739;BME280;25422;48.286;8.484;2023-04-05T10:07:09;94307.28;;;7.76;38.15
39739;BME280;25422;48.286;8.484;2023-04-05T10:09:39;94308.75;;;7.61;36.75
39739;BME280;25422;48.286;8.484;2023-04-05T10:12:06;94306.66;;;7.19;38.30
39739;BME280;25422;48.286;8.484;2023-04-05T10:14:31;94305.69;;;6.64;38.62
39739;BME280;25422;48.286;8.484;2023-04-05T10:19:28;94305.44;;;6.95;41.61
39739;BME280;25422;48.286;8.484;2023-04-05T10:21:59;94299.53;;;6.18;42.79
39739;BME280;25422;48.286;8.484;2023-04-05T10:27:04;94299.25;;;5.43;44.17
39739;BME280;25422;48.286;8.484;2023-04-05T10:29:49;94309.59;;;6.88;40.56
39739;BME280;25422;48.286;8.484;2023-04-05T10:32:36;94303.94;;;6.92;38.59
39739;BME280;25422;48.286;8.484;2023-04-05T10:35:09;94298.53;;;7.32;36.32
39739;BME280;25422;48.286;8.484;2023-04-05T10:40:22;94294.34;;;6.65;36.41
39739;BME280;25422;48.286;8.484;2023-04-05T10:42:47;94297.72;;;7.03;37.83
39739;BME280;25422;48.286;8.484;2023-04-05T10:45:16;94297.44;;;7.70;38.39
39739;BME280;25422;48.286;8.484;2023-04-05T10:50:56;94295.00;;;7.23;37.07
39739;BME280;25422;48.286;8.484;2023-04-05T10:53:24;94297.00;;;8.37;38.25
39739;BME280;25422;48.286;8.484;2023-04-05T10:55:50;94291.44;;;8.58;36.49
39739;BME280;25422;48.286;8.484;2023-04-05T10:58:16;94299.16;;;7.62;35.90
39739;BME280;25422;48.286;8.484;2023-04-05T11:00:45;94296.13;;;6.55;38.45
39739;BME280;25422;48.286;8.484;2023-04-05T11:06:31;94285.38;;;7.51;36.29
39739;BME280;25422;48.286;8.484;2023-04-05T11:09:19;94287.25;;;7.13;36.54
39739;BME280;25422;48.286;8.484;2023-04-05T11:11:47;94278.47;;;7.78;36.24
39739;BME280;25422;48.286;8.484;2023-04-05T11:14:19;94290.13;;;7.92;35.73
39739;BME280;25422;48.286;8.484;2023-04-05T11:16:50;94275.50;;;8.62;36.14
39739;BME280;25422;48.286;8.484;2023-04-05T11:20:02;94284.38;;;6.88;38.15
39739;BME280;25422;48.286;8.484;2023-04-05T11:22:29;94292.22;;;7.70;36.74
39739;BME280;25422;48.286;8.484;2023-04-05T11:24:59;94279.94;;;7.26;38.88
39739;BME280;25422;48.286;8.484;2023-04-05T11:27:28;94274.94;;;7.15;37.76
39739;BME280;25422;48.286;8.484;2023-04-05T11:29:56;94274.69;;;6.81;37.90
39739;BME280;25422;48.286;8.484;2023-04-05T11:32:23;94262.34;;;6.65;40.46
39739;BME280;25422;48.286;8.484;2023-04-05T11:34:59;94257.00;;;8.02;37.91
39739;BME280;25422;48.286;8.484;2023-04-05T11:43:07;94257.69;;;10.33;33.10
39739;BME280;25422;48.286;8.484;2023-04-05T11:45:36;94252.34;;;9.69;33.61
39739;BME280;25422;48.286;8.484;2023-04-05T11:48:06;94255.06;;;9.51;33.58
39739;BME280;25422;48.286;8.484;2023-04-05T11:50:32;94255.03;;;8.49;34.78
39739;BME280;25422;48.286;8.484;2023-04-05T11:53:08;94257.66;;;8.83;34.58
39739;BME280;25422;48.286;8.484;2023-04-05T11:55:35;94245.41;;;10.67;33.09
39739;BME280;25422;48.286;8.484;2023-04-05T11:58:01;94246.41;;;10.57;32.54
39739;BME280;25422;48.286;8.484;2023-04-05T12:00:26;94245.31;;;9.86;32.73
39739;BME280;25422;48.286;8.484;2023-04-05T12:02:55;94243.00;;;8.90;32.78
39739;BME280;25422;48.286;8.484;2023-04-05T12:05:21;94246.69;;;10.71;29.82
39739;BME280;25422;48.286;8.484;2023-04-05T12:07:51;94234.56;;;11.09;30.98
39739;BME280;25422;48.286;8.484;2023-04-05T12:10:17;94237.44;;;10.43;31.30
39739;BME280;25422;48.286;8.484;2023-04-05T12:12:43;94241.13;;;10.66;30.28
39739;BME280;25422;48.286;8.484;2023-04-05T12:15:11;94225.22;;;12.16;29.17
39739;BME280;25422;48.286;8.484;2023-04-05T12:20:05;94233.47;;;11.58;29.29
39739;BME280;25422;48.286;8.484;2023-04-05T12:22:31;94222.25;;;11.73;31.12
39739;BME280;25422;48.286;8.484;2023-04-05T12:24:57;94226.50;;;12.50;28.21
39739;BME280;25422;48.286;8.484;2023-04-05T12:27:22;94234.34;;;10.88;29.97
39739;BME280;25422;48.286;8.484;2023-04-05T12:30:14;94232.75;;;12.94;27.06
39739;BME280;25422;48.286;8.484;2023-04-05T12:32:45;94218.44;;;12.37;26.19
39739;BME280;25422;48.286;8.484;2023-04-05T12:37:38;94219.44;;;10.96;28.46
39739;BME280;25422;48.286;8.484;2023-04-05T12:40:04;94216.28;;;13.00;26.93
39739;BME280;25422;48.286;8.484;2023-04-05T12:42:32;94219.00;;;12.92;25.90
39739;BME280;25422;48.286;8.484;2023-04-05T12:45:09;94214.50;;;11.56;28.32
39739;BME280;25422;48.286;8.484;2023-04-05T12:47:35;94223.38;;;10.53;29.78
39739;BME280;25422;48.286;8.484;2023-04-05T12:50:30;94220.31;;;12.13;28.56
39739;BME280;25422;48.286;8.484;2023-04-05T12:53:05;94215.75;;;13.26;25.85
39739;BME280;25422;48.286;8.484;2023-04-05T12:55:31;94209.31;;;12.47;26.29
39739;BME280;25422;48.286;8.484;2023-04-05T12:58:00;94223.41;;;13.58;25.57
39739;BME280;25422;48.286;8.484;2023-04-05T13:00:29;94213.22;;;13.33;23.84
39739;BME280;25422;48.286;8.484;2023-04-05T13:02:57;94206.19;;;14.27;23.65
39739;BME280;25422;48.286;8.484;2023-04-05T13:05:27;94209.88;;;13.39;25.24
39739;BME280;25422;48.286;8.484;2023-04-05T13:07:53;94201.53;;;12.69;24.14
39739;BME280;25422;48.286;8.484;2023-04-05T13:10:19;94196.94;;;13.23;25.68
39739;BME280;25422;48.286;8.484;2023-04-05T13:12:45;94194.63;;;12.23;25.99
39739;BME280;25422;48.286;8.484;2023-04-05T13:15:11;94209.97;;;11.50;26.32
39739;BME280;25422;48.286;8.484;2023-04-05T13:17:39;94193.88;;;13.56;24.40
39739;BME280;25422;48.286;8.484;2023-04-05T13:20:05;94196.22;;;13.14;24.98
39739;BME280;25422;48.286;8.484;2023-04-05T13:22:31;94188.31;;;12.32;25.53
39739;BME280;25422;48.286;8.484;2023-04-05T13:24:56;94183.59;;;11.98;25.68
39739;BME280;25422;48.286;8.484;2023-04-05T13:27:22;94185.34;;;11.36;25.27
39739;BME280;25422;48.286;8.484;2023-04-05T13:29:47;94184.28;;;10.91;26.94
39739;BME280;25422;48.286;8.484;2023-04-05T13:32:13;94183.03;;;10.14;27.64
39739;BME280;25422;48.286;8.484;2023-04-05T13:34:39;94178.50;;;9.09;29.34
39739;BME280;25422;48.286;8.484;2023-04-05T13:37:04;94174.94;;;8.67;30.55
39739;BME280;25422;48.286;8.484;2023-04-05T13:39:30;94175.28;;;8.64;31.12
39739;BME280;25422;48.286;8.484;2023-04-05T13:41:55;94178.47;;;8.50;30.45
39739;BME280;25422;48.286;8.484;2023-04-05T13:44:21;94178.03;;;8.36;30.43
39739;BME280;25422;48.286;8.484;2023-04-05T13:46:47;94180.88;;;8.17;30.56